New Harbor, ME

43° 52' 34"N, 69° 29' 40"W, Elevation 65 ft.
Eastern Time

Hourly observations for the last 72 hours

Date Time Temperature (°F) Humi-
dity

(%)
Wind
(mph)
Pressure Rain (in) Sun
(W/m2)
ET
(in)
Air Dew 6 Hour 1 Hr 3 Hr 6 Hr Day
Alt
(in)
Sea
Level

(mb)
Max Min
25 13:00 41.0 10.4 28 WNW 1 G 11 30.01 1016.3 0.00 636 0.031
25 12:00 38.2 11.6 33 WNW 6 G 13 30.02 1016.6 0.00 768 0.018
25 11:00 35.7 7.3 30 NW 8 G 17 30.02 1016.8 0.00 693 0.011
25 10:00 33.4 4.5 29 NW 8 G 16 30.03 1017.0 0.00 39 0.008
25 09:00 32.0 8.7 37 NW 9 G 19 30.02 1016.6 0.00 37 0.005
25 08:00 32.1 14.6 36.3 29.7 48 NNW 8 G 18 30.01 1016.2 0.00 127 0.003
25 07:00 32.3 21.1 63 N 4 G 13 29.98 1015.1 0.00 18 0.002
25 06:00 34.6 22.9 62 NNW 5 G 15 29.94 1014.1 0.00 0 0.001
25 05:00 36.1 28.3 73 NNW 6 G 12 29.92 1013.1 0.00 0 0.000
25 04:00 33.3 27.5 79 NW 2 G 5 29.90 1012.6 0.00 0 0.000
25 03:00 29.8 25.6 84 WNW 1 G 2 29.89 1012.3 0.00 0 0.000
25 02:00 30.2 25.7 39.2 30.0 83 WNW 1 G 2 29.88 1011.9 0.00 0 0.000
25 01:00 31.7 25.9 79 Calm 29.87 1011.6 0.00 0 0.000
25 00:00 31.8 26.3 80 NNW 2 G 3 29.86 1011.4 0.00 0 0.092
24 23:00 33.0 27.2 79 NNW 1 G 2 29.87 1011.4 0.00 0 0.092
24 22:00 33.7 29.4 84 Calm 29.87 1011.4 0.00 0 0.092
24 21:00 37.1 31.5 80 W 1 G 7 29.87 1011.5 0.00 0 0.091
24 20:00 38.2 32.3 51.7 38.0 79 N 1 G 4 29.86 1011.1 0.00 0 0.091
24 19:00 40.5 32.9 74 SW 2 G 4 29.85 1010.8 0.00 0 0.090
24 18:00 43.5 32.5 65 SW 3 G 8 29.84 1010.7 0.00 67 0.088
24 17:00 46.5 29.8 52 SSW 4 G 9 29.84 1010.5 0.00 155 0.083
24 16:00 51.6 29.8 43 SSW 4 G 12 29.84 1010.7 0.00 325 0.074
24 15:00 47.4 29.2 49 SW 4 G 8 29.84 1010.6 0.00 461 0.063
24 14:00 48.6 28.2 48.6 33.9 45 SSW 3 G 13 29.86 1011.2 0.00 729 0.049
24 13:00 45.2 28.6 52 SSW 5 G 13 29.90 1012.4 0.00 657 0.035
24 12:00 43.7 25.3 48 SSW 9 G 14 29.90 1012.7 0.00 751 0.021
24 11:00 42.4 18.6 38 WSW 7 G 13 29.92 1013.3 0.00 680 0.014
24 10:00 38.6 19.1 45 SSW 5 G 9 29.93 1013.6 0.00 44 0.012
24 09:00 36.2 19.8 51 SW 4 G 9 29.93 1013.7 0.00 39 0.010
24 08:00 33.9 20.7 33.9 28.6 58 WSW 4 G 9 29.93 1013.6 0.00 105 0.009
24 07:00 30.8 17.8 58 W 2 G 6 29.91 1013.0 0.00 14 0.008
24 06:00 31.9 13.5 46 W 3 G 12 29.91 1012.8 0.00 0 0.007
24 05:00 30.5 13.6 49 NNW 3 G 10 29.88 1012.0 0.00 0 0.006
24 04:00 29.6 14.1 52 W 4 G 11 29.86 1011.2 0.00 0 0.005
24 03:00 29.4 15.2 55 WNW 2 G 10 29.86 1011.3 0.00 0 0.004
24 02:00 30.5 14.5 34.8 30.4 51 WNW 5 G 12 29.85 1011.0 0.00 0 0.002
24 01:00 31.1 15.1 51 NW 6 G 24 29.82 1009.9 0.00 0 0.000
24 00:00 30.7 16.0 54 WNW 5 G 14 29.81 1009.4 0.09 0 0.094
23 23:00 30.8 17.4 57 WNW 5 G 10 29.79 1008.9 0.09 0 0.092
23 22:00 32.4 16.7 52 WNW 7 G 22 29.76 1007.7 0.09 0 0.090
23 21:00 33.5 18.6 54 NW 7 G 21 29.73 1006.6 0.09 0 0.088
23 20:00 34.8 21.9 45.5 34.6 59 NW 11 G 20 29.67 1004.8 0.09 0 0.086
23 19:00 35.2 23.9 63 NW 11 G 28 29.63 1003.5 0.09 0 0.084
23 18:00 37.2 25.8 63 WNW 10 G 23 29.58 1001.8 0.09 56 0.080
23 17:00 39.7 26.1 58 NW 11 G 20 29.53 1000.0 0.09 267 0.072
23 16:00 42.3 28.2 57 NNW 8 G 22 29.48 998.4 0.09 466 0.061
23 15:00 44.0 28.4 54 WNW 13 G 27 29.43 996.7 0.09 605 0.048
23 14:00 44.2 29.5 46.0 36.2 56 WNW 9 G 23 29.40 995.6 0.09 701 0.034
23 13:00 44.8 30.1 56 WNW 10 G 23 29.38 994.8 0.09 649 0.019
23 12:00 43.9 31.7 62 NW 12 G 29 29.33 993.4 0.09 633 0.011
23 11:00 40.5 32.5 73 WNW 8 G 22 29.31 992.4 0.09 232 0.006
23 10:00 41.5 34.8 77 NNW 10 G 18 29.25 990.7 0.09 225 0.002
23 09:00 37.8 33.4 84 NW 6 G 20 29.22 989.4 0.09 84 0.001
23 08:00 36.3 33.4 36.3 32.8 89 NNW 4 G 14 29.18 988.3 0.01 0.07 0.09 0.09 72 0.000
23 07:00 35.1 33.5 94 WNW 2 G 13 29.14 986.8 0.02 0.08 7 0.000
23 06:00 34.3 33.3 96 WNW 3 G 8 29.10 985.4 0.04 0.06 0 0.000
23 05:00 33.3 32.0 95 NW 4 G 13 29.06 984.2 0.02 0.02 0 0.000
23 04:00 34.3 32.8 94 NW 5 G 13 29.03 983.2 0.02 0.02 0 0.000
23 03:00 35.1 33.3 93 W 5 G 10 29.01 982.5 0.00 0 0.000
23 02:00 35.7 33.9 37.6 35.5 93 WSW 4 G 11 29.00 982.3 0.02 0.00 0 0.000
23 01:00 35.9 34.6 95 WSW 3 G 8 29.00 981.9 0.00 0 0.000
23 00:00 36.1 34.8 95 W 3 G 11 28.98 981.5 0.59 0 0.016
22 23:00 35.7 34.4 95 W 3 G 8 28.98 981.3 0.01 0.02 0.59 0 0.016
22 22:00 35.8 34.8 96 WNW 3 G 10 28.97 980.9 0.01 0.58 0 0.016
22 21:00 36.2 35.2 96 NW 9 G 16 28.95 980.3 0.57 0 0.016
22 20:00 37.6 36.6 41.1 37.5 96 NNW 4 G 11 28.92 979.2 0.02 0.57 0 0.016
22 19:00 38.6 37.6 96 NNW 6 G 13 28.88 978.0 0.57 0 0.016
22 18:00 39.3 38.3 96 N 4 G 15 28.87 977.7 0.57 12 0.015
22 17:00 40.3 39.3 96 N 4 G 11 28.87 977.6 0.01 0.02 0.57 74 0.013
22 16:00 41.1 40.0 96 NE 7 G 14 28.91 978.9 0.01 0.56 114 0.011
22 15:00 40.5 39.5 96 NE 8 G 14 28.95 980.3 0.55 130 0.009
22 14:00 39.3 38.3 39.4 33.8 96 ENE 7 G 22 29.00 982.0 0.01 0.12 0.45 0.55 135 0.007

Data generated by WxSolution Version 1.9.1.5, Build 2018.05.20.